Stations météo

réclame
Mon MeteoGroup
Buzenol, Belgique (6484): Température de l'air & dewpoint: 17.09.2017 23:00:00 - 23.09.2017 23:00:00 (CEST)Buzenol, Belgique (6484): Vitesse du vent & gusts: 17.09.2017 23:00:00 - 23.09.2017 23:00:00 (CEST)Buzenol, Belgique (6484): Direction du vent: 17.09.2017 23:00:00 - 23.09.2017 23:00:00 (CEST)Buzenol, Belgique (6484): reduced air pressure: 17.09.2017 23:00:00 - 23.09.2017 23:00:00 (CEST)Buzenol, Belgique (6484): Ensoleillement: 17.09.2017 23:00:00 - 23.09.2017 23:00:00 (CEST)Buzenol, Belgique (6484): Quantités de précipitations: 17.09.2017 23:00:00 - 23.09.2017 23:00:00 (CEST)
Date & Time tt [°C] td [°C] ff [km/h] ff [knt] fx [km/h] fx [knt] dd ppp [hPa] sd [min] rr [mm]
23.09.2017 23:00:00 8,5 8,5 11 6 - - N 1022,8 - -
23.09.2017 22:00:00 9,2 9,2 8 4 9 5 N 1022,9 0 0,0
23.09.2017 21:00:00 10,0 10,0 8 4 10 5 N 1022,4 0 0,0
23.09.2017 20:00:00 11,0 10,9 7 4 10 6 N 1022,2 0 0,0
23.09.2017 19:00:00 12,6 11,5 6 3 6 4 N 1021,7 0 0,0
23.09.2017 18:00:00 14,7 11,1 4 2 6 4 NNE 1021,5 1 0,0
23.09.2017 17:00:00 18,0 8,5 6 3 12 6 E 1021,4 60 0,0
23.09.2017 16:00:00 18,5 8,8 5 3 12 7 S 1021,9 58 0,0
23.09.2017 15:00:00 17,6 11,6 8 4 16 9 SE 1022,4 51 0,0
23.09.2017 14:00:00 16,1 11,5 11 6 16 9 ENE 1022,8 2 0,0
23.09.2017 13:00:00 15,7 11,5 10 5 17 9 E 1023,1 24 0,0
23.09.2017 12:00:00 15,5 15,5 12 6 20 11 ENE 1023,6 58 0,0
23.09.2017 11:00:00 14,3 14,3 12 7 19 10 E 1023,8 60 0,0
23.09.2017 10:00:00 11,0 11,0 5 3 9 5 ENE 1024,4 60 0,0
23.09.2017 09:00:00 8,8 8,8 8 5 12 7 N 1024,4 8 0,0
23.09.2017 08:00:00 8,3 8,3 7 4 14 8 N 1024,4 0 0,0
23.09.2017 07:00:00 8,4 8,4 10 6 16 9 N 1024,4 0 0,1
23.09.2017 06:00:00 8,6 8,6 10 5 14 8 N 1024,2 0 0,0
23.09.2017 05:00:00 8,5 8,5 12 6 16 8 N 1024,4 0 0,0
23.09.2017 04:00:00 6,9 6,9 9 5 11 6 N 1024,6 0 0,0
23.09.2017 03:00:00 7,4 7,4 5 3 7 4 N 1024,5 0 0,0
23.09.2017 02:00:00 8,2 8,2 7 4 9 5 N 1024,5 0 0,0
23.09.2017 01:00:00 8,7 8,7 5 3 9 5 N 1024,2 0 0,0
23.09.2017 00:00:00 10,1 10,1 7 4 8 4 N 1023,7 0 0,0
22.09.2017 23:00:00 10,7 10,7 4 2 5 3 NNE 1023,9 0 0,0
22.09.2017 22:00:00 11,4 11,4 0 0 5 3 N 1023,4 0 0,0
22.09.2017 21:00:00 12,2 11,5 5 3 11 6 N 1023,1 0 0,0
22.09.2017 20:00:00 13,2 11,3 4 2 11 6 N 1022,1 0 0,0
22.09.2017 19:00:00 - - - - - - - - - -
22.09.2017 18:00:00 16,9 10,7 8 4 17 9 NW 1021,2 40 0,0
22.09.2017 17:00:00 - - - - - - - - - -
22.09.2017 16:00:00 - - - - - - - - - -
22.09.2017 15:00:00 - - - - - - - - - -
22.09.2017 14:00:00 17,9 10,6 7 4 12 6 S 1020,6 34 0,0
22.09.2017 13:00:00 17,0 10,7 4 2 7 4 SE 1020,7 56 0,0
22.09.2017 12:00:00 - - - - - - - - - -
22.09.2017 11:00:00 - - - - - - - - - -
22.09.2017 10:00:00 11,4 11,4 4 2 7 4 E 1021,0 60 0,1
22.09.2017 09:00:00 6,5 6,5 6 4 9 5 N 1021,3 58 0,0
22.09.2017 08:00:00 4,5 4,5 7 4 10 5 N 1021,4 1 0,0
22.09.2017 07:00:00 - - - - - - - - - -
22.09.2017 06:00:00 4,7 4,7 7 4 10 5 N 1021,0 0 0,1
22.09.2017 05:00:00 - - - - - - - - - -
22.09.2017 04:00:00 - - - - - - - - - -
22.09.2017 03:00:00 - - - - - - - - - -
22.09.2017 02:00:00 5,8 5,8 7 4 9 5 NNE 1021,2 0 0,0
22.09.2017 01:00:00 6,3 6,3 8 4 9 5 N 1020,9 0 0,0
22.09.2017 00:00:00 6,8 6,8 8 4 9 5 N 1020,8 0 0,0
21.09.2017 23:00:00 7,4 7,4 8 4 9 5 N 1020,8 0 0,0
21.09.2017 22:00:00 - - - - - - - - - -
21.09.2017 21:00:00 - - - - - - - - - -
21.09.2017 20:00:00 - - - - - - - - - -
21.09.2017 19:00:00 - - - - - - - - - -
21.09.2017 18:00:00 16,8 7,6 8 4 19 11 S 1018,9 60 0,0
21.09.2017 17:00:00 17,0 8,5 10 6 22 12 S 1019,0 60 0,0
21.09.2017 16:00:00 16,5 8,5 8 4 18 10 SSW 1019,4 60 0,0
21.09.2017 15:00:00 16,5 9,5 14 8 18 10 SSW 1019,6 60 0,0
21.09.2017 14:00:00 - - - - - - - - - -
21.09.2017 13:00:00 - - - - - - - - - -
21.09.2017 12:00:00 - - - - - - - - - -
21.09.2017 11:00:00 - - - - - - - - - -
21.09.2017 10:00:00 9,0 9,0 6 3 9 5 E 1022,1 60 0,1
21.09.2017 09:00:00 - - - - - - - - - -
21.09.2017 08:00:00 - - - - - - - - - -
21.09.2017 07:00:00 - - - - - - - - - -
21.09.2017 06:00:00 2,5 2,5 7 4 9 5 N 1022,8 0 0,1
21.09.2017 05:00:00 2,8 2,8 8 4 10 6 N 1023,0 0 0,0
21.09.2017 04:00:00 3,1 3,1 9 5 10 5 NNE 1023,2 0 0,0
21.09.2017 03:00:00 - - - - - - - - - -
21.09.2017 02:00:00 - - - - - - - - - -
21.09.2017 01:00:00 - - - - - - - - - -
21.09.2017 00:00:00 - - - - - - - - - -
20.09.2017 23:00:00 - - - - - - - - - -
20.09.2017 22:00:00 7,3 7,3 5 3 7 4 N 1022,9 0 0,0
20.09.2017 21:00:00 8,2 8,0 7 4 8 4 NNE 1022,8 0 0,0
20.09.2017 20:00:00 - - - - - - - - - -
20.09.2017 19:00:00 - - - - - - - - - -
20.09.2017 18:00:00 13,4 7,8 8 4 18 10 NW 1021,8 8 0,0
20.09.2017 17:00:00 13,7 8,5 9 5 22 12 W 1022,1 43 0,0
20.09.2017 16:00:00 14,6 8,5 10 6 21 12 W 1022,2 45 0,0
20.09.2017 15:00:00 13,3 8,5 11 6 21 11 WSW 1022,5 16 0,0
20.09.2017 14:00:00 - - - - - - - - - -
20.09.2017 13:00:00 - - - - - - - - - -
20.09.2017 12:00:00 - - - - - - - - - -
20.09.2017 11:00:00 - - - - - - - - - -
20.09.2017 10:00:00 10,0 10,0 6 4 17 9 WSW 1023,3 9 0,0
20.09.2017 09:00:00 9,1 9,1 6 3 13 7 WNW 1023,4 0 0,0
20.09.2017 08:00:00 9,1 9,1 7 4 14 7 WNW 1022,9 0 0,0
20.09.2017 07:00:00 8,9 8,9 4 2 7 4 S 1022,7 0 0,0
20.09.2017 06:00:00 8,0 8,0 4 2 6 3 NNE 1022,7 0 0,0
20.09.2017 05:00:00 7,2 7,2 0 0 5 3 N 1022,7 0 0,0
20.09.2017 04:00:00 7,3 7,3 4 2 6 3 SSW 1022,7 0 0,1
20.09.2017 03:00:00 6,9 6,9 6 4 8 5 NNW 1023,0 0 0,0
20.09.2017 02:00:00 - - - - - - - - - -
20.09.2017 01:00:00 - - - - - - - - - -
20.09.2017 00:00:00 - - - - - - - - - -
19.09.2017 23:00:00 6,8 6,8 5 3 7 4 NNW 1022,7 0 0,0
19.09.2017 22:00:00 7,5 7,5 4 2 8 4 N 1022,5 0 0,0
19.09.2017 21:00:00 8,8 8,8 6 3 7 4 N 1022,0 0 0,0
19.09.2017 20:00:00 10,7 9,9 7 4 9 5 WNW 1021,2 16 0,0
19.09.2017 19:00:00 12,8 10,0 4 2 9 5 W 1020,2 34 0,0
19.09.2017 18:00:00 13,2 8,9 6 4 22 12 NW 1019,7 32 0,0
19.09.2017 17:00:00 13,5 9,3 11 6 21 11 NNW 1019,3 31 0,0
19.09.2017 16:00:00 12,9 10,8 9 5 18 10 WNW 1019,4 18 0,0
19.09.2017 15:00:00 12,1 11,7 6 4 19 11 NNW 1019,6 11 0,0
19.09.2017 14:00:00 11,6 11,6 7 4 18 10 NNW 1019,6 2 0,5
19.09.2017 13:00:00 10,9 10,9 10 5 19 10 WNW 1019,5 5 0,0
19.09.2017 12:00:00 11,9 11,9 11 6 23 12 W 1019,0 53 0,0
19.09.2017 11:00:00 11,1 11,1 10 6 19 10 WNW 1018,9 45 0,0
19.09.2017 10:00:00 9,5 9,5 5 3 14 8 WNW 1018,6 6 0,0
19.09.2017 09:00:00 8,7 8,7 6 3 12 6 WSW 1018,5 0 0,0
19.09.2017 08:00:00 8,5 8,5 4 2 10 6 W 1018,3 0 0,0
19.09.2017 07:00:00 8,4 8,4 7 4 13 7 W 1018,0 0 0,1
19.09.2017 06:00:00 8,5 8,5 7 4 14 7 W 1017,7 0 0,0
19.09.2017 05:00:00 8,6 8,6 7 4 11 6 W 1017,8 0 0,0
19.09.2017 04:00:00 8,7 8,7 6 3 11 6 W 1017,9 0 0,0
19.09.2017 03:00:00 8,7 8,7 7 4 13 7 NW 1018,1 0 0,0
19.09.2017 02:00:00 8,7 8,7 4 2 9 5 W 1017,9 0 0,0
19.09.2017 01:00:00 8,6 8,6 4 2 10 6 W 1018,0 0 0,1
19.09.2017 00:00:00 8,7 8,7 8 4 15 8 W 1018,3 0 0,0
18.09.2017 23:00:00 8,4 8,4 4 2 8 5 SW 1018,1 0 0,0
18.09.2017 22:00:00 - - - - - - - - - -
18.09.2017 21:00:00 - - - - - - - - - -
18.09.2017 20:00:00 8,6 8,6 4 2 14 8 WSW 1017,4 0 0,8
18.09.2017 19:00:00 9,0 7,8 8 4 27 15 NW 1017,4 0 1,4
18.09.2017 18:00:00 12,2 8,0 13 7 23 12 WSW 1016,4 12 0,0
18.09.2017 17:00:00 12,6 7,7 12 6 23 12 W 1016,4 30 0,0
18.09.2017 16:00:00 11,9 10,9 12 7 22 12 W 1016,6 7 0,0
18.09.2017 15:00:00 11,6 11,6 12 7 21 11 SW 1016,6 6 0,0
18.09.2017 14:00:00 10,6 10,6 11 6 21 12 WSW 1017,2 0 0,0
18.09.2017 13:00:00 9,1 9,1 9 5 16 9 WSW 1017,7 0 0,0
18.09.2017 12:00:00 8,6 8,6 8 4 18 10 WSW 1017,4 0 0,0
18.09.2017 11:00:00 8,1 8,1 11 6 18 10 SW 1017,4 0 0,0
18.09.2017 10:00:00 7,7 7,7 12 7 19 10 SW 1017,1 0 0,0
18.09.2017 09:00:00 7,3 7,3 8 5 19 10 W 1016,8 0 0,0
18.09.2017 08:00:00 7,0 7,0 7 4 12 7 WSW 1016,7 0 0,0
18.09.2017 07:00:00 7,1 7,1 5 3 13 7 SW 1016,3 0 0,1
18.09.2017 06:00:00 7,1 7,1 6 3 11 6 WSW 1016,2 0 0,0
18.09.2017 05:00:00 7,1 7,1 6 3 10 5 SSW 1016,1 0 0,0
18.09.2017 04:00:00 6,1 6,1 4 2 5 3 S 1016,1 0 0,0
18.09.2017 03:00:00 4,6 4,6 4 2 5 3 NE 1016,2 0 0,1
18.09.2017 02:00:00 4,2 4,2 0 0 5 3 N 1016,3 0 0,0
18.09.2017 01:00:00 4,7 4,7 5 3 6 3 NNE 1016,2 0 0,0
18.09.2017 00:00:00 5,4 5,4 4 2 12 6 WSW 1016,0 0 0,0
17.09.2017 23:00:00 5,7 5,7 9 5 10 5 N 1015,8 0 0,0

tt = Température de l'air
td = dewpoint
ff = Vitesse du vent
fx = gusts
dd = Direction du vent
ppp = reduced air pressure
sd = Ensoleillement
rr = Quantités de précipitations

stations d'obs. à proximité